Archival Weather

John F Kennedy Intl

New York, New York (KJFK)

Report from: Friday, February 23, 2024 7:51 AM EST
Current time: Wednesday, April 24, 2024 4:12 PM EDT

Current weather – Weather history – Daily summaries
Weather forecast

Temperature6.1°C (43.0°F)
Wind chill3.1°C (37.7°F)
Dew point4.4°C (39.9°F)
Winds 8 kts (4.1 m/s, 9.2 mph) North-Northwest (330°)
Visibility10 mi. (16.1 km)
Clouds Few clouds 800 ft. (244 m)
Ceiling: Broken clouds 6,000 ft. (1,829 m)
Broken clouds 11,000 ft. (3,353 m)
Overcast 25,000 ft. (7,620 m)
Altimeter29.53 in.Hg (1000 mB)
Relative humidity89 %
Density altitude-498 ft. (-152 m)
Sea-level pressure100.0 kPa (1000 mB, 29.53 in.Hg)
Remarks Automated weather observing station with precipitation discriminator
Flight conditions Visual Meteorological Conditions
Raw dataKJFK 231251Z 33008KT 10SM FEW008 BKN060 BKN110 OVC250 06/04 A2953 RMK AO2 SLP000 T00610044
An error has occurred. This application may no longer respond until reloaded. Reload 🗙